sensor_id;sensor_type;location;lat;lon;timestamp;P1;durP1;ratioP1;P2;durP2;ratioP2
31910;SDS011;18457;52.432;16.914;2024-01-07T00:01:04;16.60;;;6.30;;
31910;SDS011;18457;52.432;16.914;2024-01-07T00:04:00;14.50;;;6.70;;
31910;SDS011;18457;52.432;16.914;2024-01-07T00:06:32;8.40;;;4.70;;
31910;SDS011;18457;52.432;16.914;2024-01-07T00:09:04;10.10;;;5.90;;
31910;SDS011;18457;52.432;16.914;2024-01-07T00:11:36;13.60;;;6.20;;
31910;SDS011;18457;52.432;16.914;2024-01-07T00:14:08;12.20;;;6.40;;
31910;SDS011;18457;52.432;16.914;2024-01-07T00:16:41;15.80;;;6.70;;
31910;SDS011;18457;52.432;16.914;2024-01-07T00:21:44;11.30;;;5.30;;
31910;SDS011;18457;52.432;16.914;2024-01-07T00:24:16;18.40;;;6.70;;
31910;SDS011;18457;52.432;16.914;2024-01-07T00:26:48;9.80;;;3.70;;
31910;SDS011;18457;52.432;16.914;2024-01-07T00:29:19;10.30;;;5.50;;
31910;SDS011;18457;52.432;16.914;2024-01-07T00:31:51;11.90;;;5.00;;
31910;SDS011;18457;52.432;16.914;2024-01-07T00:34:23;10.20;;;5.10;;
31910;SDS011;18457;52.432;16.914;2024-01-07T00:36:55;8.20;;;4.60;;
31910;SDS011;18457;52.432;16.914;2024-01-07T00:39:27;10.50;;;5.10;;
31910;SDS011;18457;52.432;16.914;2024-01-07T00:41:59;8.50;;;4.40;;
31910;SDS011;18457;52.432;16.914;2024-01-07T00:44:31;9.60;;;4.70;;
31910;SDS011;18457;52.432;16.914;2024-01-07T00:47:03;10.40;;;4.70;;
31910;SDS011;18457;52.432;16.914;2024-01-07T00:49:35;10.40;;;4.70;;
31910;SDS011;18457;52.432;16.914;2024-01-07T00:52:09;10.20;;;5.40;;
31910;SDS011;18457;52.432;16.914;2024-01-07T00:54:41;6.90;;;4.00;;
31910;SDS011;18457;52.432;16.914;2024-01-07T00:57:13;11.90;;;4.70;;
31910;SDS011;18457;52.432;16.914;2024-01-07T00:59:45;8.20;;;4.90;;
31910;SDS011;18457;52.432;16.914;2024-01-07T01:02:17;11.30;;;5.00;;
31910;SDS011;18457;52.432;16.914;2024-01-07T01:04:49;7.80;;;4.20;;
31910;SDS011;18457;52.432;16.914;2024-01-07T01:07:21;10.40;;;5.00;;
31910;SDS011;18457;52.432;16.914;2024-01-07T01:09:53;9.10;;;4.40;;
31910;SDS011;18457;52.432;16.914;2024-01-07T01:12:25;10.80;;;4.20;;
31910;SDS011;18457;52.432;16.914;2024-01-07T01:14:57;9.70;;;4.30;;
31910;SDS011;18457;52.432;16.914;2024-01-07T01:17:30;6.90;;;4.00;;
31910;SDS011;18457;52.432;16.914;2024-01-07T01:20:02;11.80;;;5.00;;
31910;SDS011;18457;52.432;16.914;2024-01-07T01:22:34;10.20;;;4.30;;
31910;SDS011;18457;52.432;16.914;2024-01-07T01:25:07;11.80;;;5.30;;
31910;SDS011;18457;52.432;16.914;2024-01-07T01:27:39;11.30;;;4.90;;
31910;SDS011;18457;52.432;16.914;2024-01-07T01:30:11;8.90;;;3.80;;
31910;SDS011;18457;52.432;16.914;2024-01-07T01:32:44;8.70;;;4.70;;
31910;SDS011;18457;52.432;16.914;2024-01-07T01:35:16;9.70;;;4.50;;
31910;SDS011;18457;52.432;16.914;2024-01-07T01:37:49;10.20;;;4.90;;
31910;SDS011;18457;52.432;16.914;2024-01-07T01:40:23;9.20;;;4.60;;
31910;SDS011;18457;52.432;16.914;2024-01-07T01:42:55;9.60;;;5.00;;
31910;SDS011;18457;52.432;16.914;2024-01-07T01:45:27;7.40;;;4.40;;
31910;SDS011;18457;52.432;16.914;2024-01-07T01:47:59;8.30;;;4.70;;
31910;SDS011;18457;52.432;16.914;2024-01-07T01:50:31;9.00;;;5.00;;
31910;SDS011;18457;52.432;16.914;2024-01-07T01:53:03;8.20;;;4.70;;
31910;SDS011;18457;52.432;16.914;2024-01-07T01:55:35;9.60;;;5.40;;
31910;SDS011;18457;52.432;16.914;2024-01-07T01:58:07;11.10;;;5.00;;
31910;SDS011;18457;52.432;16.914;2024-01-07T02:00:41;9.70;;;5.10;;
31910;SDS011;18457;52.432;16.914;2024-01-07T02:03:13;12.90;;;4.50;;
31910;SDS011;18457;52.432;16.914;2024-01-07T02:05:45;11.70;;;5.00;;
31910;SDS011;18457;52.432;16.914;2024-01-07T02:08:20;8.20;;;4.10;;
31910;SDS011;18457;52.432;16.914;2024-01-07T02:10:52;11.10;;;5.50;;
31910;SDS011;18457;52.432;16.914;2024-01-07T02:13:24;11.20;;;4.60;;
31910;SDS011;18457;52.432;16.914;2024-01-07T02:15:56;10.50;;;5.20;;
31910;SDS011;18457;52.432;16.914;2024-01-07T02:18:28;8.50;;;4.50;;
31910;SDS011;18457;52.432;16.914;2024-01-07T02:21:00;13.40;;;5.30;;
31910;SDS011;18457;52.432;16.914;2024-01-07T02:23:33;8.60;;;4.50;;
31910;SDS011;18457;52.432;16.914;2024-01-07T02:26:05;6.30;;;4.10;;
31910;SDS011;18457;52.432;16.914;2024-01-07T02:28:37;6.40;;;3.70;;
31910;SDS011;18457;52.432;16.914;2024-01-07T02:31:09;9.80;;;4.50;;
31910;SDS011;18457;52.432;16.914;2024-01-07T02:33:41;8.40;;;4.80;;
31910;SDS011;18457;52.432;16.914;2024-01-07T02:36:15;7.60;;;3.80;;
31910;SDS011;18457;52.432;16.914;2024-01-07T02:38:47;9.00;;;3.80;;
31910;SDS011;18457;52.432;16.914;2024-01-07T02:41:18;5.20;;;3.30;;
31910;SDS011;18457;52.432;16.914;2024-01-07T02:43:54;6.20;;;3.10;;
31910;SDS011;18457;52.432;16.914;2024-01-07T02:46:26;11.70;;;4.20;;
31910;SDS011;18457;52.432;16.914;2024-01-07T02:48:58;5.90;;;3.10;;
31910;SDS011;18457;52.432;16.914;2024-01-07T02:51:30;10.00;;;3.40;;
31910;SDS011;18457;52.432;16.914;2024-01-07T02:54:02;6.30;;;3.70;;
31910;SDS011;18457;52.432;16.914;2024-01-07T02:56:34;6.90;;;3.40;;
31910;SDS011;18457;52.432;16.914;2024-01-07T02:59:06;5.80;;;3.10;;
31910;SDS011;18457;52.432;16.914;2024-01-07T03:01:38;7.40;;;4.50;;
31910;SDS011;18457;52.432;16.914;2024-01-07T03:04:12;7.80;;;4.10;;
31910;SDS011;18457;52.432;16.914;2024-01-07T03:06:47;7.30;;;3.70;;
31910;SDS011;18457;52.432;16.914;2024-01-07T03:09:19;7.00;;;3.60;;
31910;SDS011;18457;52.432;16.914;2024-01-07T03:11:51;4.50;;;2.40;;
31910;SDS011;18457;52.432;16.914;2024-01-07T03:14:23;8.00;;;4.30;;
31910;SDS011;18457;52.432;16.914;2024-01-07T03:19:26;7.10;;;3.70;;
31910;SDS011;18457;52.432;16.914;2024-01-07T03:21:58;6.70;;;3.80;;
31910;SDS011;18457;52.432;16.914;2024-01-07T03:24:30;10.50;;;4.50;;
31910;SDS011;18457;52.432;16.914;2024-01-07T03:27:02;9.40;;;4.20;;
31910;SDS011;18457;52.432;16.914;2024-01-07T03:29:34;6.20;;;3.20;;
31910;SDS011;18457;52.432;16.914;2024-01-07T03:32:06;9.50;;;4.30;;
31910;SDS011;18457;52.432;16.914;2024-01-07T03:34:39;8.10;;;3.80;;
31910;SDS011;18457;52.432;16.914;2024-01-07T03:37:11;8.70;;;4.20;;
31910;SDS011;18457;52.432;16.914;2024-01-07T03:39:43;10.30;;;3.40;;
31910;SDS011;18457;52.432;16.914;2024-01-07T03:42:16;8.40;;;3.60;;
31910;SDS011;18457;52.432;16.914;2024-01-07T03:44:49;6.80;;;3.40;;
31910;SDS011;18457;52.432;16.914;2024-01-07T03:47:21;5.30;;;3.30;;
31910;SDS011;18457;52.432;16.914;2024-01-07T03:49:53;10.70;;;3.40;;
31910;SDS011;18457;52.432;16.914;2024-01-07T03:52:24;6.40;;;3.60;;
31910;SDS011;18457;52.432;16.914;2024-01-07T03:54:57;7.00;;;3.10;;
31910;SDS011;18457;52.432;16.914;2024-01-07T03:57:30;8.10;;;4.00;;
31910;SDS011;18457;52.432;16.914;2024-01-07T04:00:02;5.70;;;3.70;;
31910;SDS011;18457;52.432;16.914;2024-01-07T04:02:37;9.10;;;4.20;;
31910;SDS011;18457;52.432;16.914;2024-01-07T04:05:09;6.90;;;4.00;;
31910;SDS011;18457;52.432;16.914;2024-01-07T04:07:42;7.10;;;3.80;;
31910;SDS011;18457;52.432;16.914;2024-01-07T04:10:14;7.50;;;4.30;;
31910;SDS011;18457;52.432;16.914;2024-01-07T04:12:47;10.60;;;4.40;;
31910;SDS011;18457;52.432;16.914;2024-01-07T04:15:19;4.80;;;2.40;;
31910;SDS011;18457;52.432;16.914;2024-01-07T04:17:51;6.90;;;3.80;;
31910;SDS011;18457;52.432;16.914;2024-01-07T04:20:23;7.20;;;3.80;;
31910;SDS011;18457;52.432;16.914;2024-01-07T04:22:55;8.60;;;3.70;;
31910;SDS011;18457;52.432;16.914;2024-01-07T04:25:27;7.10;;;4.40;;
31910;SDS011;18457;52.432;16.914;2024-01-07T04:27:59;9.80;;;4.30;;
31910;SDS011;18457;52.432;16.914;2024-01-07T04:30:32;7.10;;;3.80;;
31910;SDS011;18457;52.432;16.914;2024-01-07T04:33:04;8.30;;;4.30;;
31910;SDS011;18457;52.432;16.914;2024-01-07T04:35:36;9.00;;;4.00;;
31910;SDS011;18457;52.432;16.914;2024-01-07T04:38:08;5.20;;;3.40;;
31910;SDS011;18457;52.432;16.914;2024-01-07T04:40:41;5.80;;;3.70;;
31910;SDS011;18457;52.432;16.914;2024-01-07T04:43:13;7.20;;;4.10;;
31910;SDS011;18457;52.432;16.914;2024-01-07T04:45:44;8.50;;;4.20;;
31910;SDS011;18457;52.432;16.914;2024-01-07T04:48:17;8.10;;;3.70;;
31910;SDS011;18457;52.432;16.914;2024-01-07T04:50:49;6.70;;;4.10;;
31910;SDS011;18457;52.432;16.914;2024-01-07T04:53:21;8.40;;;4.00;;
31910;SDS011;18457;52.432;16.914;2024-01-07T04:55:53;10.30;;;4.40;;
31910;SDS011;18457;52.432;16.914;2024-01-07T04:58:25;7.90;;;3.70;;
31910;SDS011;18457;52.432;16.914;2024-01-07T05:00:56;10.00;;;4.40;;
31910;SDS011;18457;52.432;16.914;2024-01-07T05:03:29;9.90;;;3.90;;
31910;SDS011;18457;52.432;16.914;2024-01-07T05:08:32;7.20;;;3.50;;
31910;SDS011;18457;52.432;16.914;2024-01-07T05:11:04;8.00;;;3.90;;
31910;SDS011;18457;52.432;16.914;2024-01-07T05:13:36;11.00;;;4.70;;
31910;SDS011;18457;52.432;16.914;2024-01-07T05:16:08;5.70;;;4.20;;
31910;SDS011;18457;52.432;16.914;2024-01-07T05:18:48;10.40;;;4.30;;
31910;SDS011;18457;52.432;16.914;2024-01-07T05:21:20;9.30;;;4.50;;
31910;SDS011;18457;52.432;16.914;2024-01-07T05:23:52;8.70;;;4.40;;
31910;SDS011;18457;52.432;16.914;2024-01-07T05:26:24;9.50;;;4.60;;
31910;SDS011;18457;52.432;16.914;2024-01-07T05:28:56;8.50;;;4.10;;
31910;SDS011;18457;52.432;16.914;2024-01-07T05:31:28;9.60;;;4.40;;
31910;SDS011;18457;52.432;16.914;2024-01-07T05:34:00;9.40;;;4.40;;
31910;SDS011;18457;52.432;16.914;2024-01-07T05:36:32;7.00;;;4.30;;
31910;SDS011;18457;52.432;16.914;2024-01-07T05:39:04;9.00;;;4.60;;
31910;SDS011;18457;52.432;16.914;2024-01-07T05:41:37;9.90;;;4.90;;
31910;SDS011;18457;52.432;16.914;2024-01-07T05:44:09;9.50;;;4.60;;
31910;SDS011;18457;52.432;16.914;2024-01-07T05:46:42;10.50;;;5.30;;
31910;SDS011;18457;52.432;16.914;2024-01-07T05:49:13;8.40;;;5.20;;
31910;SDS011;18457;52.432;16.914;2024-01-07T05:51:45;10.40;;;4.70;;
31910;SDS011;18457;52.432;16.914;2024-01-07T05:54:18;13.60;;;5.10;;
31910;SDS011;18457;52.432;16.914;2024-01-07T05:56:51;11.60;;;5.70;;
31910;SDS011;18457;52.432;16.914;2024-01-07T05:59:23;11.40;;;4.40;;
31910;SDS011;18457;52.432;16.914;2024-01-07T06:01:58;9.70;;;5.00;;
31910;SDS011;18457;52.432;16.914;2024-01-07T06:04:31;11.20;;;5.70;;
31910;SDS011;18457;52.432;16.914;2024-01-07T06:07:03;12.10;;;4.80;;
31910;SDS011;18457;52.432;16.914;2024-01-07T06:09:36;14.90;;;5.80;;
31910;SDS011;18457;52.432;16.914;2024-01-07T06:12:08;8.70;;;4.80;;
31910;SDS011;18457;52.432;16.914;2024-01-07T06:14:40;11.80;;;5.10;;
31910;SDS011;18457;52.432;16.914;2024-01-07T06:17:12;11.90;;;5.60;;
31910;SDS011;18457;52.432;16.914;2024-01-07T06:19:44;13.20;;;5.90;;
31910;SDS011;18457;52.432;16.914;2024-01-07T06:22:16;12.20;;;6.20;;
31910;SDS011;18457;52.432;16.914;2024-01-07T06:24:48;11.40;;;6.20;;
31910;SDS011;18457;52.432;16.914;2024-01-07T06:27:21;12.90;;;6.10;;
31910;SDS011;18457;52.432;16.914;2024-01-07T06:29:53;14.80;;;5.70;;
31910;SDS011;18457;52.432;16.914;2024-01-07T06:32:25;15.20;;;6.40;;
31910;SDS011;18457;52.432;16.914;2024-01-07T06:34:57;11.70;;;5.80;;
31910;SDS011;18457;52.432;16.914;2024-01-07T06:37:29;13.60;;;6.60;;
31910;SDS011;18457;52.432;16.914;2024-01-07T06:40:01;8.20;;;4.40;;
31910;SDS011;18457;52.432;16.914;2024-01-07T06:42:34;14.40;;;6.50;;
31910;SDS011;18457;52.432;16.914;2024-01-07T06:45:07;12.70;;;6.50;;
31910;SDS011;18457;52.432;16.914;2024-01-07T06:47:40;11.90;;;7.00;;
31910;SDS011;18457;52.432;16.914;2024-01-07T06:50:12;9.90;;;5.90;;
31910;SDS011;18457;52.432;16.914;2024-01-07T06:52:44;15.20;;;6.50;;
31910;SDS011;18457;52.432;16.914;2024-01-07T06:55:16;15.10;;;6.60;;
31910;SDS011;18457;52.432;16.914;2024-01-07T06:57:48;15.10;;;7.70;;
31910;SDS011;18457;52.432;16.914;2024-01-07T07:00:20;13.00;;;6.60;;
31910;SDS011;18457;52.432;16.914;2024-01-07T07:02:52;13.90;;;6.60;;
31910;SDS011;18457;52.432;16.914;2024-01-07T07:07:56;15.90;;;6.80;;
31910;SDS011;18457;52.432;16.914;2024-01-07T07:10:28;13.90;;;6.20;;
31910;SDS011;18457;52.432;16.914;2024-01-07T07:13:01;15.70;;;7.70;;
31910;SDS011;18457;52.432;16.914;2024-01-07T07:15:33;14.30;;;7.10;;
31910;SDS011;18457;52.432;16.914;2024-01-07T07:18:05;16.60;;;7.30;;
31910;SDS011;18457;52.432;16.914;2024-01-07T07:20:38;16.30;;;7.20;;
31910;SDS011;18457;52.432;16.914;2024-01-07T07:23:10;14.20;;;6.70;;
31910;SDS011;18457;52.432;16.914;2024-01-07T07:28:13;14.60;;;7.50;;
31910;SDS011;18457;52.432;16.914;2024-01-07T07:30:46;13.80;;;7.00;;
31910;SDS011;18457;52.432;16.914;2024-01-07T07:33:21;12.90;;;6.80;;
31910;SDS011;18457;52.432;16.914;2024-01-07T07:35:53;18.20;;;7.30;;
31910;SDS011;18457;52.432;16.914;2024-01-07T07:38:25;17.80;;;8.20;;
31910;SDS011;18457;52.432;16.914;2024-01-07T07:40:57;13.70;;;7.50;;
31910;SDS011;18457;52.432;16.914;2024-01-07T07:43:29;17.90;;;7.90;;
31910;SDS011;18457;52.432;16.914;2024-01-07T07:46:01;11.80;;;7.00;;
31910;SDS011;18457;52.432;16.914;2024-01-07T07:48:34;13.70;;;7.10;;
31910;SDS011;18457;52.432;16.914;2024-01-07T07:51:06;16.10;;;7.00;;
31910;SDS011;18457;52.432;16.914;2024-01-07T07:53:39;12.80;;;6.70;;
31910;SDS011;18457;52.432;16.914;2024-01-07T07:56:11;21.40;;;8.10;;
31910;SDS011;18457;52.432;16.914;2024-01-07T07:58:43;18.50;;;7.70;;
31910;SDS011;18457;52.432;16.914;2024-01-07T08:01:15;15.40;;;7.10;;
31910;SDS011;18457;52.432;16.914;2024-01-07T08:03:48;17.40;;;8.10;;
31910;SDS011;18457;52.432;16.914;2024-01-07T08:06:20;14.80;;;7.80;;
31910;SDS011;18457;52.432;16.914;2024-01-07T08:08:52;17.60;;;8.90;;
31910;SDS011;18457;52.432;16.914;2024-01-07T08:11:25;12.60;;;7.10;;
31910;SDS011;18457;52.432;16.914;2024-01-07T08:13:58;17.50;;;7.60;;
31910;SDS011;18457;52.432;16.914;2024-01-07T08:19:01;17.00;;;8.50;;
31910;SDS011;18457;52.432;16.914;2024-01-07T08:21:34;16.60;;;7.60;;
31910;SDS011;18457;52.432;16.914;2024-01-07T08:24:06;14.70;;;7.10;;
31910;SDS011;18457;52.432;16.914;2024-01-07T08:26:39;17.90;;;7.20;;
31910;SDS011;18457;52.432;16.914;2024-01-07T08:29:11;18.50;;;7.90;;
31910;SDS011;18457;52.432;16.914;2024-01-07T08:31:43;17.90;;;8.20;;
31910;SDS011;18457;52.432;16.914;2024-01-07T08:34:15;19.30;;;8.30;;
31910;SDS011;18457;52.432;16.914;2024-01-07T08:36:48;17.10;;;7.20;;
31910;SDS011;18457;52.432;16.914;2024-01-07T08:39:20;15.70;;;7.30;;
31910;SDS011;18457;52.432;16.914;2024-01-07T08:41:52;14.50;;;7.50;;
31910;SDS011;18457;52.432;16.914;2024-01-07T08:46:55;15.10;;;6.60;;
31910;SDS011;18457;52.432;16.914;2024-01-07T08:49:30;18.10;;;7.00;;
31910;SDS011;18457;52.432;16.914;2024-01-07T08:52:04;14.10;;;7.10;;
31910;SDS011;18457;52.432;16.914;2024-01-07T08:54:36;17.20;;;6.70;;
31910;SDS011;18457;52.432;16.914;2024-01-07T08:57:08;11.90;;;6.30;;
31910;SDS011;18457;52.432;16.914;2024-01-07T08:59:40;12.30;;;6.40;;
31910;SDS011;18457;52.432;16.914;2024-01-07T09:02:12;12.20;;;6.10;;
31910;SDS011;18457;52.432;16.914;2024-01-07T09:04:44;13.20;;;6.70;;
31910;SDS011;18457;52.432;16.914;2024-01-07T09:07:16;12.30;;;6.10;;
31910;SDS011;18457;52.432;16.914;2024-01-07T09:09:48;17.90;;;6.80;;
31910;SDS011;18457;52.432;16.914;2024-01-07T09:12:20;16.80;;;6.40;;
31910;SDS011;18457;52.432;16.914;2024-01-07T09:14:52;10.30;;;5.90;;
31910;SDS011;18457;52.432;16.914;2024-01-07T09:17:24;12.20;;;6.10;;
31910;SDS011;18457;52.432;16.914;2024-01-07T09:19:56;13.70;;;5.50;;
31910;SDS011;18457;52.432;16.914;2024-01-07T09:22:28;11.50;;;6.50;;
31910;SDS011;18457;52.432;16.914;2024-01-07T09:25:01;11.30;;;6.40;;
31910;SDS011;18457;52.432;16.914;2024-01-07T09:27:34;11.60;;;6.30;;
31910;SDS011;18457;52.432;16.914;2024-01-07T09:30:07;13.40;;;6.40;;
31910;SDS011;18457;52.432;16.914;2024-01-07T09:32:43;14.70;;;5.60;;
31910;SDS011;18457;52.432;16.914;2024-01-07T09:35:16;15.30;;;7.30;;
31910;SDS011;18457;52.432;16.914;2024-01-07T09:37:48;15.90;;;6.90;;
31910;SDS011;18457;52.432;16.914;2024-01-07T09:40:20;18.00;;;7.50;;
31910;SDS011;18457;52.432;16.914;2024-01-07T09:42:52;15.80;;;7.10;;
31910;SDS011;18457;52.432;16.914;2024-01-07T09:45:25;17.60;;;7.90;;
31910;SDS011;18457;52.432;16.914;2024-01-07T09:47:58;14.10;;;7.00;;
31910;SDS011;18457;52.432;16.914;2024-01-07T09:50:31;18.70;;;7.50;;
31910;SDS011;18457;52.432;16.914;2024-01-07T09:53:03;10.20;;;5.80;;
31910;SDS011;18457;52.432;16.914;2024-01-07T09:55:37;21.80;;;7.00;;
31910;SDS011;18457;52.432;16.914;2024-01-07T09:58:16;15.10;;;7.60;;
31910;SDS011;18457;52.432;16.914;2024-01-07T10:00:48;16.60;;;6.80;;
31910;SDS011;18457;52.432;16.914;2024-01-07T10:03:21;15.60;;;7.40;;
31910;SDS011;18457;52.432;16.914;2024-01-07T10:08:24;14.90;;;6.80;;
31910;SDS011;18457;52.432;16.914;2024-01-07T10:10:59;17.20;;;7.10;;
31910;SDS011;18457;52.432;16.914;2024-01-07T10:13:32;13.60;;;7.10;;
31910;SDS011;18457;52.432;16.914;2024-01-07T10:16:05;13.30;;;6.90;;
31910;SDS011;18457;52.432;16.914;2024-01-07T10:18:39;19.60;;;7.20;;
31910;SDS011;18457;52.432;16.914;2024-01-07T10:21:11;14.30;;;6.60;;
31910;SDS011;18457;52.432;16.914;2024-01-07T10:23:44;14.90;;;7.60;;
31910;SDS011;18457;52.432;16.914;2024-01-07T10:26:16;17.90;;;7.60;;
31910;SDS011;18457;52.432;16.914;2024-01-07T10:28:58;24.20;;;7.40;;
31910;SDS011;18457;52.432;16.914;2024-01-07T10:31:31;14.60;;;6.10;;
31910;SDS011;18457;52.432;16.914;2024-01-07T10:34:03;20.70;;;7.70;;
31910;SDS011;18457;52.432;16.914;2024-01-07T10:36:40;13.90;;;7.50;;
31910;SDS011;18457;52.432;16.914;2024-01-07T10:39:13;15.90;;;8.20;;
31910;SDS011;18457;52.432;16.914;2024-01-07T10:41:45;14.40;;;6.40;;
31910;SDS011;18457;52.432;16.914;2024-01-07T10:44:21;19.20;;;7.20;;
31910;SDS011;18457;52.432;16.914;2024-01-07T10:46:55;12.90;;;5.90;;
31910;SDS011;18457;52.432;16.914;2024-01-07T10:49:28;13.30;;;6.30;;
31910;SDS011;18457;52.432;16.914;2024-01-07T10:52:03;16.90;;;7.00;;
31910;SDS011;18457;52.432;16.914;2024-01-07T10:54:37;17.80;;;7.30;;
31910;SDS011;18457;52.432;16.914;2024-01-07T10:57:15;15.00;;;6.50;;
31910;SDS011;18457;52.432;16.914;2024-01-07T10:59:52;21.00;;;6.90;;
31910;SDS011;18457;52.432;16.914;2024-01-07T11:02:26;17.00;;;7.20;;
31910;SDS011;18457;52.432;16.914;2024-01-07T11:05:03;24.40;;;6.70;;
31910;SDS011;18457;52.432;16.914;2024-01-07T11:07:46;17.00;;;7.10;;
31910;SDS011;18457;52.432;16.914;2024-01-07T11:10:26;12.80;;;6.20;;
31910;SDS011;18457;52.432;16.914;2024-01-07T11:13:33;15.40;;;6.60;;
31910;SDS011;18457;52.432;16.914;2024-01-07T11:16:07;15.10;;;7.00;;
31910;SDS011;18457;52.432;16.914;2024-01-07T11:18:41;15.40;;;7.30;;
31910;SDS011;18457;52.432;16.914;2024-01-07T11:21:24;12.70;;;6.00;;
31910;SDS011;18457;52.432;16.914;2024-01-07T11:23:56;17.20;;;7.10;;
31910;SDS011;18457;52.432;16.914;2024-01-07T11:26:29;17.80;;;7.30;;
31910;SDS011;18457;52.432;16.914;2024-01-07T11:29:01;21.00;;;7.00;;
31910;SDS011;18457;52.432;16.914;2024-01-07T11:34:40;180.00;;;31.10;;
31910;SDS011;18457;52.432;16.914;2024-01-07T11:37:15;30.40;;;12.80;;
31910;SDS011;18457;52.432;16.914;2024-01-07T11:39:50;19.10;;;8.70;;
31910;SDS011;18457;52.432;16.914;2024-01-07T11:42:25;13.70;;;7.20;;
31910;SDS011;18457;52.432;16.914;2024-01-07T11:44:57;16.40;;;7.50;;
31910;SDS011;18457;52.432;16.914;2024-01-07T11:47:29;14.10;;;7.30;;
31910;SDS011;18457;52.432;16.914;2024-01-07T11:50:02;15.70;;;7.20;;
31910;SDS011;18457;52.432;16.914;2024-01-07T11:52:35;14.20;;;7.50;;
31910;SDS011;18457;52.432;16.914;2024-01-07T11:55:08;16.50;;;7.40;;
31910;SDS011;18457;52.432;16.914;2024-01-07T12:00:13;15.90;;;7.20;;
31910;SDS011;18457;52.432;16.914;2024-01-07T12:02:46;25.60;;;7.70;;
31910;SDS011;18457;52.432;16.914;2024-01-07T12:05:18;15.10;;;7.60;;
31910;SDS011;18457;52.432;16.914;2024-01-07T12:07:50;16.00;;;6.50;;
31910;SDS011;18457;52.432;16.914;2024-01-07T12:10:22;23.90;;;8.60;;
31910;SDS011;18457;52.432;16.914;2024-01-07T12:12:55;14.20;;;7.40;;
31910;SDS011;18457;52.432;16.914;2024-01-07T12:15:28;18.30;;;7.40;;
31910;SDS011;18457;52.432;16.914;2024-01-07T12:18:02;19.20;;;7.80;;
31910;SDS011;18457;52.432;16.914;2024-01-07T12:20:36;21.80;;;8.10;;
31910;SDS011;18457;52.432;16.914;2024-01-07T12:23:08;19.10;;;7.60;;
31910;SDS011;18457;52.432;16.914;2024-01-07T12:25:43;21.30;;;9.30;;
31910;SDS011;18457;52.432;16.914;2024-01-07T12:28:16;22.50;;;8.60;;
31910;SDS011;18457;52.432;16.914;2024-01-07T12:30:48;22.90;;;8.70;;
31910;SDS011;18457;52.432;16.914;2024-01-07T12:33:22;19.20;;;8.50;;
31910;SDS011;18457;52.432;16.914;2024-01-07T12:35:56;23.10;;;8.60;;
31910;SDS011;18457;52.432;16.914;2024-01-07T12:38:29;20.20;;;8.60;;
31910;SDS011;18457;52.432;16.914;2024-01-07T12:41:01;25.90;;;8.40;;
31910;SDS011;18457;52.432;16.914;2024-01-07T12:43:34;21.00;;;9.00;;
31910;SDS011;18457;52.432;16.914;2024-01-07T12:46:06;22.30;;;9.40;;
31910;SDS011;18457;52.432;16.914;2024-01-07T12:48:38;19.20;;;8.10;;
31910;SDS011;18457;52.432;16.914;2024-01-07T12:51:10;18.00;;;8.60;;
31910;SDS011;18457;52.432;16.914;2024-01-07T12:53:43;22.20;;;9.00;;
31910;SDS011;18457;52.432;16.914;2024-01-07T12:58:46;22.00;;;7.90;;
31910;SDS011;18457;52.432;16.914;2024-01-07T13:01:18;18.30;;;7.90;;
31910;SDS011;18457;52.432;16.914;2024-01-07T13:03:50;21.50;;;9.10;;
31910;SDS011;18457;52.432;16.914;2024-01-07T13:06:22;21.70;;;8.00;;
31910;SDS011;18457;52.432;16.914;2024-01-07T13:08:55;27.70;;;9.10;;
31910;SDS011;18457;52.432;16.914;2024-01-07T13:11:30;21.70;;;8.00;;
31910;SDS011;18457;52.432;16.914;2024-01-07T13:14:02;20.20;;;9.20;;
31910;SDS011;18457;52.432;16.914;2024-01-07T13:16:35;22.90;;;8.60;;
31910;SDS011;18457;52.432;16.914;2024-01-07T13:19:06;18.50;;;8.20;;
31910;SDS011;18457;52.432;16.914;2024-01-07T13:21:40;25.10;;;8.70;;
31910;SDS011;18457;52.432;16.914;2024-01-07T13:24:12;22.50;;;10.20;;
31910;SDS011;18457;52.432;16.914;2024-01-07T13:26:44;24.90;;;9.90;;
31910;SDS011;18457;52.432;16.914;2024-01-07T13:29:16;23.20;;;9.10;;
31910;SDS011;18457;52.432;16.914;2024-01-07T13:31:49;19.40;;;9.40;;
31910;SDS011;18457;52.432;16.914;2024-01-07T13:34:21;22.40;;;9.40;;
31910;SDS011;18457;52.432;16.914;2024-01-07T13:36:53;17.50;;;8.20;;
31910;SDS011;18457;52.432;16.914;2024-01-07T13:39:25;23.30;;;9.40;;
31910;SDS011;18457;52.432;16.914;2024-01-07T13:41:57;15.40;;;8.00;;
31910;SDS011;18457;52.432;16.914;2024-01-07T13:44:30;21.40;;;8.30;;
31910;SDS011;18457;52.432;16.914;2024-01-07T13:47:03;20.90;;;9.50;;
31910;SDS011;18457;52.432;16.914;2024-01-07T13:49:36;29.90;;;9.30;;
31910;SDS011;18457;52.432;16.914;2024-01-07T13:52:08;22.40;;;9.40;;
31910;SDS011;18457;52.432;16.914;2024-01-07T13:54:44;16.50;;;7.70;;
31910;SDS011;18457;52.432;16.914;2024-01-07T13:57:17;22.10;;;9.20;;
31910;SDS011;18457;52.432;16.914;2024-01-07T13:59:49;16.10;;;8.00;;
31910;SDS011;18457;52.432;16.914;2024-01-07T14:02:21;30.10;;;9.40;;
31910;SDS011;18457;52.432;16.914;2024-01-07T14:04:54;19.20;;;8.50;;
31910;SDS011;18457;52.432;16.914;2024-01-07T14:07:27;18.50;;;8.10;;
31910;SDS011;18457;52.432;16.914;2024-01-07T14:09:59;22.70;;;9.20;;
31910;SDS011;18457;52.432;16.914;2024-01-07T14:12:33;27.20;;;9.40;;
31910;SDS011;18457;52.432;16.914;2024-01-07T14:15:05;19.80;;;9.00;;
31910;SDS011;18457;52.432;16.914;2024-01-07T14:17:38;20.80;;;9.50;;
31910;SDS011;18457;52.432;16.914;2024-01-07T14:20:11;23.50;;;10.10;;
31910;SDS011;18457;52.432;16.914;2024-01-07T14:22:43;24.20;;;9.70;;
31910;SDS011;18457;52.432;16.914;2024-01-07T14:25:16;21.20;;;9.70;;
31910;SDS011;18457;52.432;16.914;2024-01-07T14:27:49;23.90;;;9.10;;
31910;SDS011;18457;52.432;16.914;2024-01-07T14:30:21;25.20;;;9.70;;
31910;SDS011;18457;52.432;16.914;2024-01-07T14:32:53;26.60;;;10.90;;
31910;SDS011;18457;52.432;16.914;2024-01-07T14:35:26;27.30;;;9.90;;
31910;SDS011;18457;52.432;16.914;2024-01-07T14:37:59;24.50;;;9.60;;
31910;SDS011;18457;52.432;16.914;2024-01-07T14:40:35;29.00;;;10.90;;
31910;SDS011;18457;52.432;16.914;2024-01-07T14:43:07;24.50;;;10.40;;
31910;SDS011;18457;52.432;16.914;2024-01-07T14:45:39;22.80;;;9.70;;
31910;SDS011;18457;52.432;16.914;2024-01-07T14:48:12;25.70;;;9.80;;
31910;SDS011;18457;52.432;16.914;2024-01-07T14:53:17;25.30;;;10.30;;
31910;SDS011;18457;52.432;16.914;2024-01-07T14:55:49;25.80;;;10.00;;
31910;SDS011;18457;52.432;16.914;2024-01-07T14:58:21;24.10;;;10.10;;
31910;SDS011;18457;52.432;16.914;2024-01-07T15:00:53;24.40;;;9.90;;
31910;SDS011;18457;52.432;16.914;2024-01-07T15:03:27;24.50;;;9.90;;
31910;SDS011;18457;52.432;16.914;2024-01-07T15:08:30;28.40;;;9.70;;
31910;SDS011;18457;52.432;16.914;2024-01-07T15:11:02;24.30;;;10.50;;
31910;SDS011;18457;52.432;16.914;2024-01-07T15:13:35;21.40;;;10.40;;
31910;SDS011;18457;52.432;16.914;2024-01-07T15:16:09;25.80;;;9.60;;
31910;SDS011;18457;52.432;16.914;2024-01-07T15:18:41;28.60;;;9.20;;
31910;SDS011;18457;52.432;16.914;2024-01-07T15:21:13;20.60;;;9.30;;
31910;SDS011;18457;52.432;16.914;2024-01-07T15:26:16;22.50;;;9.70;;
31910;SDS011;18457;52.432;16.914;2024-01-07T15:28:48;29.40;;;11.70;;
31910;SDS011;18457;52.432;16.914;2024-01-07T15:31:21;33.20;;;10.40;;